Vallscreek, West Virginia
Current Conditions -  °F | °C
As of 9:55 PM on Friday 19 Dec 2014 (Local Time) from KJFZ Reporting Station
Clear Clear  
Wind Chill: 22°   Ceiling: Unl
Heat Index: 29°   Visibility: 10mi
Dew Point: 23°   Wind: 7mph
Humidity: 77%   Direction: 50°NE
Pressure: 30.15"   Gusts: NA
Location:  37.2686°N, 81.6669°W
Report Text: KJFZ 200255Z AUTO 05006KT 10SM CLR M02/M05 A3015 RMK AO2 T10161052
Loading
Personal Weather Stations






























Interactive Weather Map New forecast layout! Learn more

10-Day Weather Forecast

Advertisements
Track Severe Weather on mobile